Augusta Regional At Bush Field
KAGS : now visible

Airfield :











YOU CAN JOIN US ON...

 
LOGIN :

Register | Disclaimer

   EN    FR    IT 

 









Legend :    VFR   Marginal VFR   IFR   Intensive IFR   Very Intensive IFR
Visi :
Ceiling :
>= 8 km
>= 3000ft
5 to 8 km
1000 to 3000 ft
1500m to 5 km
500 to 1000 ft
800 to 1500m
200 to 500 ft
< 800m
< 200 ft
Symbols :   Thunderstorms  Fog  Heavy snow  Heavy precipitations  Wind > 20 kt






- Airport Elevation : 144 ft
- IATA code : AGS


KAGS - Augusta Regional At Bush Field

CURRENT METAR :
  • 231453Z 00000KT 2 1/2SM BR CLR 05/03 A3034 RMK AO2 SLP274 T00500033 51003

EXPIRED METARs :
  • 231353Z 00000KT M1/4SM FG VV001 02/01 A3034 RMK AO2 SLP275 T00170011 RVRNO
  • 231302Z 00000KT 1/4SM FZFG VV001 M01/M01 A3034 RMK AO2 T10061011 RVRNO
  • 231250Z 00000KT 1 3/4SM BR BKN001 M01/M02 A3033 RMK AO2 VIS 3/4V5
  • 231227Z 00000KT 10SM SCT002 M01/M03 A3032 RMK AO2 T10111028
  • 231210Z 00000KT 4SM BR BKN001 M01/M03 A3032 RMK AO2 T10111028

TAF KAGS
Valid from the 23 at 14:00 until the 24 at 12:00 UTC


231412Z 2314/2412 00000KT 1/4SM FG BKN001
TEMPO 2314/2316 2SM BR
FM231600 VRB03KT 3SM BR SCT002 BKN200
FM231700 22006KT P6SM BKN150
FM232300 00000KT P6SM SCT030 BKN100



MET'MAP, your aeronautical weather chart ! - Copyright ORBIFLY December 2007 - Disclaimer

ORBIFLY MET'MAP TEAM :

Programming & Development : Alexandra Zaïnal
Concept & original design : Baudouin d'Aumeries
Assistance for programming : Marc-Olivier Méhu
Technical & hardware support : Manuel Goepfert

Contact : metmap@orbifly.com




SOURCES & CREDITS :

   NOAA       Earth
Advisory